الصفحة الرئيسية
METAR-TAF:

METAR-TAF

مطار :

Tinian, جزر ماريانا, الولايات المتحدة

دائرة عرض: 14-59N, خط طول: 145-37E, ارتفاع: 82 متر

مراقبة الطقس الحالي

تاريخ ووقت الإصدار 57 دقيقة قبل الساعة 23:59UTC
ريح 12 عقدة من الشرق
درجة الحرارة 29°درجة مئوية
الرطوبة 70%
ضغط 1014 hPa
الرؤية: 11.3 كم
غيوم متفرقة على ارتفاع 1500 قدم

METAR: PGWT 282359Z 09012KT 7SM SCT015 29/23 A2994

زمن: 10:56 (00:56 UTC)

توقعات

تاريخ ووقت الإصدار 1ساعة و 10 دقيقة قبل الساعة 23:46UTC
التوقعات صالحة من29 الساعة 00 UTC إلى 29 الساعة 24 UTC
ريح 11 عقدة من الشرق
الرؤية: 10 كم
غيوم متفرقة على ارتفاع 1500 قدم
غيوم متفرقة على ارتفاع 5000 قدم
زخات في الجوار

TAF: PGWT 282346Z 2900/2924 09011KT P6SM VCSH SCT015 SCT050

أرصاد الطقس والتوقعات من أكثر من 4000 مطار (تقارير الطقس للمطار METAR والتنبؤ بالطقس بالمطارTAF).

المحطات المتاحة هي النقط الصفراء والحمراء على الخريطة.

حرك المؤشر فوق النقطة لمعرفة اسم المحطة.

ثم انقر لمعرفة أرصاد وتوقعات الطقس.

لتغيير الخارطة: اضغط على الأزرار الخضراء مع رمز الصليب الأسود للتكبير. على الزر الأخضر مع شرطة للتصغير، أو على الأسهم الخضراء للخرائط المجاورة.


METAR-TAF: